createdAt,value
2023-01-17T00:02:22.808Z,14.70
2023-01-17T00:05:10.166Z,14.90
2023-01-17T00:07:56.776Z,14.80
2023-01-17T00:10:27.583Z,15.50
2023-01-17T00:13:00.401Z,16.10
2023-01-17T00:15:31.253Z,14.20
2023-01-17T00:18:00.049Z,15.60
2023-01-17T00:20:49.204Z,12.90
2023-01-17T00:23:42.103Z,14.10
2023-01-17T00:26:15.247Z,12.70
2023-01-17T00:28:44.152Z,14.60
2023-01-17T00:31:15.702Z,13.50
2023-01-17T00:33:44.198Z,15.40
2023-01-17T00:36:13.305Z,15.10
2023-01-17T00:38:42.316Z,14.30
2023-01-17T00:41:13.880Z,12.70
2023-01-17T00:44:02.546Z,14.20
2023-01-17T00:46:49.255Z,15.20
2023-01-17T00:49:35.911Z,15.20
2023-01-17T00:52:23.567Z,14.20
2023-01-17T00:55:10.889Z,14.50
2023-01-17T00:57:57.613Z,9.60
2023-01-17T01:00:44.639Z,13.20
2023-01-17T01:03:32.450Z,14.50
2023-01-17T01:06:23.471Z,13.80
2023-01-17T01:09:10.483Z,12.70
2023-01-17T01:11:56.981Z,11.70
2023-01-17T01:14:44.720Z,8.30
2023-01-17T01:17:31.232Z,9.60
2023-01-17T01:20:17.732Z,9.50
2023-01-17T01:23:04.339Z,9.60
2023-01-17T01:25:51.161Z,7.90
2023-01-17T01:28:38.175Z,8.10
2023-01-17T01:31:24.664Z,7.40
2023-01-17T01:33:53.836Z,6.60
2023-01-17T01:36:22.365Z,6.20
2023-01-17T01:38:50.761Z,6.00
2023-01-17T01:41:19.141Z,5.30
2023-01-17T01:43:52.727Z,5.50
2023-01-17T01:46:31.878Z,4.80
2023-01-17T01:49:09.067Z,3.70
2023-01-17T01:51:49.929Z,4.00
2023-01-17T01:54:23.687Z,3.60
2023-01-17T01:56:54.682Z,2.90
2023-01-17T01:59:23.901Z,3.30
2023-01-17T02:01:55.991Z,3.50
2023-01-17T02:04:27.920Z,2.80
2023-01-17T02:07:03.373Z,3.50
2023-01-17T02:09:32.030Z,3.60
2023-01-17T02:12:00.635Z,3.80
2023-01-17T02:14:29.123Z,3.90
2023-01-17T02:17:24.655Z,3.50
2023-01-17T02:20:14.544Z,2.80
2023-01-17T02:22:51.625Z,3.50
2023-01-17T02:25:37.916Z,3.20
2023-01-17T02:28:12.127Z,3.00
2023-01-17T02:30:46.153Z,2.70
2023-01-17T02:33:25.187Z,3.10
2023-01-17T02:36:19.489Z,2.70
2023-01-17T02:39:23.193Z,2.70
2023-01-17T02:41:58.117Z,2.50
2023-01-17T02:44:26.598Z,2.70
2023-01-17T02:46:57.092Z,2.80
2023-01-17T02:49:30.522Z,3.30
2023-01-17T02:52:06.289Z,2.90
2023-01-17T02:54:49.928Z,2.80
2023-01-17T02:57:34.964Z,2.70
2023-01-17T03:00:28.016Z,2.90
2023-01-17T03:03:19.393Z,2.80
2023-01-17T03:06:11.901Z,2.90
2023-01-17T03:08:46.158Z,3.50
2023-01-17T03:11:14.910Z,3.10
2023-01-17T03:13:43.833Z,3.00
2023-01-17T03:16:21.303Z,3.20
2023-01-17T03:18:49.815Z,12.60
2023-01-17T03:21:18.198Z,17.00
2023-01-17T03:23:46.577Z,30.50
2023-01-17T03:26:15.268Z,50.20
2023-01-17T03:28:43.637Z,11.60
2023-01-17T03:31:20.116Z,8.40
2023-01-17T03:33:48.607Z,4.80
2023-01-17T03:36:16.864Z,4.00
2023-01-17T03:38:45.047Z,4.10
2023-01-17T03:41:13.330Z,3.40
2023-01-17T03:43:41.707Z,3.00
2023-01-17T03:46:36.934Z,2.60
2023-01-17T03:49:05.519Z,2.50
2023-01-17T03:51:33.785Z,2.80
2023-01-17T03:54:02.168Z,2.50
2023-01-17T03:56:30.558Z,2.60
2023-01-17T03:58:58.857Z,4.30
2023-01-17T04:01:27.263Z,3.30
2023-01-17T04:03:55.701Z,2.60
2023-01-17T04:06:23.966Z,2.50
2023-01-17T04:08:52.147Z,2.30
2023-01-17T04:11:20.702Z,2.90
2023-01-17T04:13:48.913Z,3.00
2023-01-17T04:16:18.594Z,2.30
2023-01-17T04:18:46.797Z,2.30
2023-01-17T04:21:14.882Z,2.50
2023-01-17T04:23:42.954Z,2.40
2023-01-17T04:26:12.162Z,2.30
2023-01-17T04:28:49.765Z,1.90
2023-01-17T04:31:18.165Z,2.30
2023-01-17T04:33:46.425Z,1.80
2023-01-17T04:36:14.493Z,2.30
2023-01-17T04:38:42.821Z,2.10
2023-01-17T04:41:11.040Z,2.20
2023-01-17T04:43:39.217Z,2.20
2023-01-17T04:46:10.278Z,2.30
2023-01-17T04:48:38.753Z,2.60
2023-01-17T04:51:07.458Z,2.10
2023-01-17T04:53:36.033Z,2.00
2023-01-17T04:56:04.541Z,1.90
2023-01-17T04:58:33.553Z,2.00
2023-01-17T05:01:07.301Z,2.30
2023-01-17T05:03:36.213Z,1.90
2023-01-17T05:06:05.001Z,2.30
2023-01-17T05:08:33.281Z,1.90
2023-01-17T05:11:01.388Z,2.50
2023-01-17T05:13:29.832Z,2.30
2023-01-17T05:15:58.590Z,1.80
2023-01-17T05:18:27.005Z,1.90
2023-01-17T05:20:54.986Z,1.60
2023-01-17T05:23:23.162Z,1.70
2023-01-17T05:25:51.547Z,1.70
2023-01-17T05:28:19.861Z,1.60
2023-01-17T05:30:48.097Z,1.10
2023-01-17T05:33:16.783Z,1.80
2023-01-17T05:35:45.201Z,1.60
2023-01-17T05:38:13.457Z,1.90
2023-01-17T05:40:42.150Z,1.50
2023-01-17T05:43:10.731Z,1.20
2023-01-17T05:45:39.411Z,1.60
2023-01-17T05:48:08.204Z,1.80
2023-01-17T05:50:38.331Z,1.40
2023-01-17T05:53:09.574Z,2.00
2023-01-17T05:55:39.442Z,1.80
2023-01-17T05:58:13.089Z,1.80
2023-01-17T06:00:42.076Z,1.40
2023-01-17T06:03:11.605Z,1.70
2023-01-17T06:05:41.130Z,1.50
2023-01-17T06:08:11.125Z,1.40
2023-01-17T06:10:39.765Z,1.00
2023-01-17T06:13:12.728Z,1.10
2023-01-17T06:15:41.343Z,1.90
2023-01-17T06:18:14.321Z,1.90
2023-01-17T06:20:42.837Z,1.40
2023-01-17T06:23:13.622Z,1.40
2023-01-17T06:25:46.669Z,1.20
2023-01-17T06:28:18.263Z,1.40
2023-01-17T06:30:46.895Z,1.10
2023-01-17T06:33:16.517Z,1.20
2023-01-17T06:35:52.246Z,1.00
2023-01-17T06:38:21.357Z,1.30
2023-01-17T06:40:49.622Z,1.40
2023-01-17T06:43:17.911Z,0.80
2023-01-17T06:45:46.582Z,1.20
2023-01-17T06:48:15.053Z,1.00
2023-01-17T06:50:44.030Z,1.30
2023-01-17T06:53:12.201Z,1.20
2023-01-17T06:55:40.440Z,1.30
2023-01-17T06:58:09.802Z,1.40
2023-01-17T07:00:40.578Z,1.10
2023-01-17T07:03:19.278Z,0.90
2023-01-17T07:05:48.301Z,1.60
2023-01-17T07:08:17.842Z,1.70
2023-01-17T07:10:49.515Z,1.70
2023-01-17T07:13:17.979Z,1.30
2023-01-17T07:15:46.254Z,1.50
2023-01-17T07:18:14.849Z,1.20
2023-01-17T07:20:44.091Z,1.10
2023-01-17T07:23:13.350Z,1.10
2023-01-17T07:25:42.122Z,1.50
2023-01-17T07:28:10.415Z,1.20
2023-01-17T07:30:38.673Z,1.30
2023-01-17T07:33:07.059Z,1.50
2023-01-17T07:35:37.207Z,1.40
2023-01-17T07:38:11.469Z,1.50
2023-01-17T07:40:42.374Z,1.80
2023-01-17T07:43:15.021Z,2.10
2023-01-17T07:45:44.346Z,1.60
2023-01-17T07:48:13.096Z,1.20
2023-01-17T07:50:41.789Z,1.10
2023-01-17T07:53:10.681Z,1.10
2023-01-17T07:55:39.057Z,0.90
2023-01-17T07:58:07.346Z,1.20
2023-01-17T08:00:35.713Z,1.20
2023-01-17T08:03:04.012Z,1.60
2023-01-17T08:05:32.368Z,1.30
2023-01-17T08:08:00.871Z,1.00
2023-01-17T08:10:29.469Z,1.20
2023-01-17T08:12:57.905Z,1.00
2023-01-17T08:15:26.902Z,1.00
2023-01-17T08:17:57.748Z,0.80
2023-01-17T08:20:27.961Z,1.10
2023-01-17T08:22:57.169Z,1.20
2023-01-17T08:25:26.495Z,1.20
2023-01-17T08:27:58.340Z,1.00
2023-01-17T08:30:28.244Z,1.40
2023-01-17T08:32:56.921Z,1.50
2023-01-17T08:35:25.324Z,1.30
2023-01-17T08:37:56.482Z,1.80
2023-01-17T08:40:25.349Z,3.00
2023-01-17T08:42:58.348Z,2.20
2023-01-17T08:45:29.252Z,2.70
2023-01-17T08:48:00.293Z,2.70
2023-01-17T08:50:30.316Z,2.80
2023-01-17T08:53:01.332Z,2.10
2023-01-17T08:55:41.216Z,2.00
2023-01-17T08:58:10.399Z,2.60
2023-01-17T09:00:40.208Z,2.50
2023-01-17T09:03:14.691Z,2.40
2023-01-17T09:05:43.232Z,2.50
2023-01-17T09:08:13.035Z,2.10
2023-01-17T09:10:41.431Z,1.90
2023-01-17T09:13:09.999Z,1.80
2023-01-17T09:15:38.385Z,1.70
2023-01-17T09:18:06.877Z,1.90
2023-01-17T09:20:35.245Z,1.50
2023-01-17T09:23:04.109Z,1.20
2023-01-17T09:25:32.325Z,1.20
2023-01-17T09:28:03.136Z,1.30
2023-01-17T09:30:32.013Z,0.90
2023-01-17T09:33:00.631Z,0.90
2023-01-17T09:35:29.108Z,1.10
2023-01-17T09:38:00.947Z,1.10
2023-01-17T09:40:30.258Z,1.20
2023-01-17T09:43:04.121Z,1.10
2023-01-17T09:45:34.517Z,1.20
2023-01-17T09:48:10.488Z,1.10
2023-01-17T09:50:41.985Z,1.30
2023-01-17T09:53:18.881Z,0.90
2023-01-17T09:56:15.212Z,1.00
2023-01-17T09:59:08.676Z,1.30
2023-01-17T10:02:10.875Z,1.20
2023-01-17T10:04:42.509Z,1.00
2023-01-17T10:07:47.733Z,1.20
2023-01-17T10:10:42.648Z,1.40
2023-01-17T10:13:52.913Z,1.60
2023-01-17T10:16:55.580Z,1.50
2023-01-17T10:19:54.900Z,1.20
2023-01-17T10:22:35.337Z,1.10
2023-01-17T10:25:26.261Z,1.20
2023-01-17T10:27:54.537Z,1.00
2023-01-17T10:30:34.615Z,0.90
2023-01-17T10:33:17.124Z,0.70
2023-01-17T10:35:57.594Z,1.00
2023-01-17T10:38:35.057Z,0.90
2023-01-17T10:41:38.364Z,0.90
2023-01-17T10:44:36.020Z,1.20
2023-01-17T10:47:23.595Z,1.10
2023-01-17T10:49:54.076Z,0.80
2023-01-17T10:52:45.506Z,1.10
2023-01-17T10:55:50.118Z,1.20
2023-01-17T10:58:18.904Z,0.90
2023-01-17T11:00:52.369Z,1.10
2023-01-17T11:03:24.691Z,0.90
2023-01-17T11:06:19.920Z,1.10
2023-01-17T11:08:54.321Z,1.10
2023-01-17T11:11:34.394Z,1.10
2023-01-17T11:14:15.957Z,1.00
2023-01-17T11:17:09.847Z,1.10
2023-01-17T11:19:39.634Z,1.00
2023-01-17T11:22:15.296Z,1.20
2023-01-17T11:24:56.483Z,1.50
2023-01-17T11:27:34.177Z,1.90
2023-01-17T11:30:18.307Z,1.00
2023-01-17T11:32:55.595Z,1.10
2023-01-17T11:35:29.207Z,1.40
2023-01-17T11:38:16.530Z,1.90
2023-01-17T11:40:46.850Z,1.30
2023-01-17T11:43:30.595Z,1.60
2023-01-17T11:46:05.077Z,1.90
2023-01-17T11:48:39.445Z,1.50
2023-01-17T11:51:39.560Z,1.40
2023-01-17T11:54:21.061Z,1.70
2023-01-17T11:56:50.662Z,1.40
2023-01-17T11:59:36.157Z,1.10
2023-01-17T12:02:41.789Z,1.00
2023-01-17T12:05:41.631Z,1.60
2023-01-17T12:08:12.660Z,1.20
2023-01-17T12:10:46.863Z,1.10
2023-01-17T12:14:01.595Z,1.40
2023-01-17T12:16:57.565Z,1.30
2023-01-17T12:19:28.804Z,1.40
2023-01-17T12:22:15.416Z,1.40
2023-01-17T12:24:46.458Z,1.30
2023-01-17T12:27:29.184Z,1.20
2023-01-17T12:30:10.489Z,1.10
2023-01-17T12:32:38.718Z,1.40
2023-01-17T12:35:14.497Z,1.00
2023-01-17T12:37:46.027Z,1.30
2023-01-17T12:40:30.394Z,1.60
2023-01-17T12:43:11.976Z,1.50
2023-01-17T12:45:44.048Z,1.50
2023-01-17T12:48:18.005Z,2.20
2023-01-17T12:51:05.518Z,1.50
2023-01-17T12:53:47.066Z,1.20
2023-01-17T12:56:30.403Z,1.20
2023-01-17T12:59:17.811Z,1.50
2023-01-17T13:01:57.875Z,1.40
2023-01-17T13:04:42.008Z,1.20
2023-01-17T13:07:31.008Z,1.30
2023-01-17T13:10:26.300Z,1.40
2023-01-17T13:12:58.434Z,1.20
2023-01-17T13:15:31.047Z,1.20
2023-01-17T13:18:26.081Z,1.20
2023-01-17T13:21:16.329Z,1.10
2023-01-17T13:24:10.616Z,1.30
2023-01-17T13:26:51.227Z,1.50
2023-01-17T13:29:32.875Z,1.00
2023-01-17T13:32:35.345Z,0.90
2023-01-17T13:35:14.395Z,1.30
2023-01-17T13:38:18.181Z,1.30
2023-01-17T13:40:52.827Z,1.80
2023-01-17T13:43:40.740Z,1.30
2023-01-17T13:46:09.343Z,1.40
2023-01-17T13:48:41.100Z,1.40
2023-01-17T13:51:11.105Z,1.40
2023-01-17T13:53:39.407Z,1.80
2023-01-17T13:56:19.778Z,1.40
2023-01-17T13:58:54.471Z,1.40
2023-01-17T14:01:22.797Z,1.40
2023-01-17T14:03:51.822Z,1.20
2023-01-17T14:06:38.977Z,1.00
2023-01-17T14:09:13.499Z,1.40
2023-01-17T14:12:09.724Z,1.70
2023-01-17T14:14:41.887Z,1.20
2023-01-17T14:17:20.640Z,1.70
2023-01-17T14:19:53.500Z,1.70
2023-01-17T14:22:24.954Z,1.50
2023-01-17T14:24:59.485Z,1.30
2023-01-17T14:27:32.217Z,1.10
2023-01-17T14:30:05.786Z,1.00
2023-01-17T14:32:37.603Z,1.00
2023-01-17T14:35:06.908Z,1.20
2023-01-17T14:37:41.033Z,1.90
2023-01-17T14:40:26.635Z,1.70
2023-01-17T14:43:13.218Z,4.20
2023-01-17T14:45:43.788Z,3.00
2023-01-17T14:48:21.870Z,3.90
2023-01-17T14:50:54.386Z,8.10
2023-01-17T14:53:33.461Z,7.20
2023-01-17T14:56:12.795Z,5.40
2023-01-17T14:58:41.882Z,4.40
2023-01-17T15:01:17.990Z,4.00
2023-01-17T15:03:53.667Z,3.20
2023-01-17T15:06:27.523Z,5.40
2023-01-17T15:08:57.413Z,4.20
2023-01-17T15:11:33.788Z,4.10
2023-01-17T15:14:06.178Z,2.60
2023-01-17T15:16:38.294Z,2.50
2023-01-17T15:19:12.327Z,1.70
2023-01-17T15:21:44.436Z,1.60
2023-01-17T15:24:20.573Z,1.60
2023-01-17T15:26:50.624Z,1.40
2023-01-17T15:29:28.946Z,1.10
2023-01-17T15:32:03.659Z,1.30
2023-01-17T15:34:37.004Z,1.30
2023-01-17T15:37:29.454Z,2.30
2023-01-17T15:40:19.060Z,2.20
2023-01-17T15:42:58.540Z,3.80
2023-01-17T15:45:32.726Z,1.90
2023-01-17T15:48:34.660Z,2.00
2023-01-17T15:51:04.519Z,1.90
2023-01-17T15:53:39.954Z,1.80
2023-01-17T15:56:22.736Z,1.90
2023-01-17T15:58:51.292Z,1.60
2023-01-17T16:01:28.807Z,2.60
2023-01-17T16:03:58.979Z,2.00
2023-01-17T16:06:45.729Z,1.80
2023-01-17T16:09:24.372Z,2.30
2023-01-17T16:11:53.069Z,2.90
2023-01-17T16:14:22.474Z,3.00
2023-01-17T16:16:54.329Z,3.00
2023-01-17T16:19:24.130Z,3.30
2023-01-17T16:21:53.537Z,3.50
2023-01-17T16:24:21.965Z,4.30
2023-01-17T16:26:51.825Z,3.90
2023-01-17T16:29:20.789Z,3.60
2023-01-17T16:31:50.865Z,4.20
2023-01-17T16:34:19.938Z,6.50
2023-01-17T16:36:54.591Z,7.00
2023-01-17T16:39:25.148Z,4.30
2023-01-17T16:42:04.266Z,4.90
2023-01-17T16:44:33.828Z,4.20
2023-01-17T16:47:03.906Z,4.50
2023-01-17T16:49:38.785Z,4.70
2023-01-17T16:52:08.045Z,5.70
2023-01-17T16:54:36.849Z,9.50
2023-01-17T16:57:06.197Z,4.90
2023-01-17T16:59:49.810Z,4.50
2023-01-17T17:02:19.695Z,4.10
2023-01-17T17:04:48.562Z,3.90
2023-01-17T17:07:17.702Z,5.10
2023-01-17T17:09:47.101Z,9.90
2023-01-17T17:12:16.034Z,6.60
2023-01-17T17:14:44.842Z,9.70
2023-01-17T17:17:13.741Z,6.50
2023-01-17T17:19:42.422Z,6.00
2023-01-17T17:22:11.336Z,7.80
2023-01-17T17:24:40.505Z,8.10
2023-01-17T17:27:09.589Z,7.30
2023-01-17T17:29:43.831Z,6.80
2023-01-17T17:32:23.946Z,6.00
2023-01-17T17:34:54.791Z,6.50
2023-01-17T17:37:32.972Z,7.00
2023-01-17T17:40:08.575Z,9.20
2023-01-17T17:42:39.214Z,28.70
2023-01-17T17:45:09.804Z,13.60
2023-01-17T17:47:38.747Z,8.70
2023-01-17T17:50:08.205Z,7.40
2023-01-17T17:52:37.199Z,7.90
2023-01-17T17:55:06.926Z,8.60
2023-01-17T17:57:35.999Z,8.90
2023-01-17T18:00:05.821Z,10.50
2023-01-17T18:02:35.535Z,10.50
2023-01-17T18:05:04.687Z,10.20
2023-01-17T18:07:33.731Z,9.80
2023-01-17T18:10:03.045Z,9.40
2023-01-17T18:12:33.037Z,8.40
2023-01-17T18:15:01.396Z,9.00
2023-01-17T18:17:30.227Z,8.20
2023-01-17T18:20:00.460Z,7.80
2023-01-17T18:22:29.140Z,8.10
2023-01-17T18:24:58.162Z,7.30
2023-01-17T18:27:27.942Z,7.60
2023-01-17T18:29:56.865Z,8.30
2023-01-17T18:32:28.387Z,10.80
2023-01-17T18:34:56.982Z,11.40
2023-01-17T18:37:28.242Z,10.60
2023-01-17T18:39:57.782Z,11.70
2023-01-17T18:42:30.417Z,16.20
2023-01-17T18:44:59.110Z,13.80
2023-01-17T18:47:29.451Z,20.80
2023-01-17T18:49:58.368Z,13.90
2023-01-17T18:52:28.657Z,11.10
2023-01-17T18:54:58.299Z,12.20
2023-01-17T18:57:27.585Z,11.30
2023-01-17T18:59:57.723Z,11.10
2023-01-17T19:02:29.257Z,11.10
2023-01-17T19:04:59.472Z,9.30
2023-01-17T19:07:33.824Z,8.20
2023-01-17T19:10:03.453Z,8.80
2023-01-17T19:12:32.629Z,9.30
2023-01-17T19:15:05.150Z,9.10
2023-01-17T19:17:34.266Z,9.30
2023-01-17T19:20:07.260Z,9.90
2023-01-17T19:22:39.864Z,9.60
2023-01-17T19:25:09.522Z,15.50
2023-01-17T19:27:39.372Z,10.80
2023-01-17T19:30:09.209Z,10.80
2023-01-17T19:32:38.431Z,11.50
2023-01-17T19:35:09.410Z,12.80
2023-01-17T19:37:38.126Z,12.60
2023-01-17T19:40:09.190Z,15.80
2023-01-17T19:42:38.566Z,17.30
2023-01-17T19:45:16.797Z,18.50
2023-01-17T19:47:45.693Z,17.00
2023-01-17T19:50:15.215Z,11.70
2023-01-17T19:52:44.204Z,14.70
2023-01-17T19:55:15.043Z,22.80
2023-01-17T19:57:44.283Z,12.40
2023-01-17T20:00:20.191Z,11.60
2023-01-17T20:02:51.738Z,11.50
2023-01-17T20:05:20.848Z,12.50
2023-01-17T20:07:50.153Z,19.30
2023-01-17T20:10:19.458Z,15.10
2023-01-17T20:12:48.343Z,13.50
2023-01-17T20:15:17.282Z,15.50
2023-01-17T20:17:46.095Z,12.90
2023-01-17T20:20:16.155Z,14.80
2023-01-17T20:22:45.773Z,19.10
2023-01-17T20:25:15.281Z,19.80
2023-01-17T20:27:44.735Z,15.10
2023-01-17T20:30:20.583Z,13.70
2023-01-17T20:32:52.087Z,18.80
2023-01-17T20:35:21.507Z,36.50
2023-01-17T20:37:53.944Z,20.00
2023-01-17T20:40:23.066Z,17.10
2023-01-17T20:42:51.893Z,17.00
2023-01-17T20:45:21.583Z,17.70
2023-01-17T20:47:50.370Z,18.50
2023-01-17T20:50:19.122Z,15.60
2023-01-17T20:52:50.817Z,16.70
2023-01-17T20:55:19.744Z,13.00
2023-01-17T20:57:49.653Z,14.70
2023-01-17T21:00:19.054Z,13.60
2023-01-17T21:02:48.453Z,14.30
2023-01-17T21:05:17.966Z,12.40
2023-01-17T21:07:48.682Z,12.30
2023-01-17T21:10:18.535Z,12.00
2023-01-17T21:12:48.006Z,20.90
2023-01-17T21:15:17.824Z,17.70
2023-01-17T21:17:46.316Z,19.00
2023-01-17T21:20:15.203Z,19.80
2023-01-17T21:22:44.202Z,15.30
2023-01-17T21:25:15.044Z,11.60
2023-01-17T21:28:06.137Z,13.10
2023-01-17T21:31:23.409Z,11.40
2023-01-17T21:34:06.851Z,10.50
2023-01-17T21:36:39.093Z,12.20
2023-01-17T21:39:13.450Z,11.70
2023-01-17T21:41:48.855Z,13.20
2023-01-17T21:44:20.636Z,13.60
2023-01-17T21:46:55.140Z,12.90
2023-01-17T21:49:24.869Z,12.60
2023-01-17T21:51:53.963Z,13.20
2023-01-17T21:54:43.007Z,13.80
2023-01-17T21:57:31.671Z,14.00
2023-01-17T22:00:00.271Z,12.40
2023-01-17T22:02:29.054Z,12.10
2023-01-17T22:04:57.578Z,14.00
2023-01-17T22:07:29.305Z,17.10
2023-01-17T22:09:57.666Z,18.90
2023-01-17T22:12:26.374Z,18.20
2023-01-17T22:14:55.162Z,17.00
2023-01-17T22:17:23.758Z,18.00
2023-01-17T22:19:52.373Z,20.90
2023-01-17T22:22:20.920Z,18.70
2023-01-17T22:24:49.142Z,15.60
2023-01-17T22:27:17.477Z,16.80
2023-01-17T22:29:45.986Z,20.00
2023-01-17T22:32:14.351Z,24.90
2023-01-17T22:34:42.607Z,24.80
2023-01-17T22:37:10.899Z,31.10
2023-01-17T22:39:39.476Z,32.00
2023-01-17T22:42:07.876Z,27.40
2023-01-17T22:44:36.245Z,26.90
2023-01-17T22:47:04.635Z,25.10
2023-01-17T22:49:33.014Z,25.90
2023-01-17T22:52:02.520Z,26.20
2023-01-17T22:54:33.148Z,23.90
2023-01-17T22:57:04.291Z,23.30
2023-01-17T22:59:35.397Z,23.50
2023-01-17T23:02:04.849Z,21.00
2023-01-17T23:04:33.222Z,22.80
2023-01-17T23:07:04.361Z,18.90
2023-01-17T23:09:33.058Z,18.50
2023-01-17T23:12:01.347Z,18.70
2023-01-17T23:14:52.248Z,16.70
2023-01-17T23:17:42.257Z,15.20
2023-01-17T23:20:11.581Z,14.70
2023-01-17T23:22:39.941Z,16.70
2023-01-17T23:25:11.580Z,16.60
2023-01-17T23:28:04.547Z,15.70
2023-01-17T23:30:41.626Z,16.80
2023-01-17T23:33:13.320Z,19.70
2023-01-17T23:35:44.846Z,17.10
2023-01-17T23:38:34.302Z,15.70
2023-01-17T23:41:25.107Z,13.00
2023-01-17T23:43:57.799Z,14.20
2023-01-17T23:46:30.261Z,15.00
2023-01-17T23:48:58.482Z,16.30
2023-01-17T23:51:26.553Z,16.20
2023-01-17T23:54:05.535Z,13.70
2023-01-17T23:56:33.940Z,13.50
2023-01-17T23:59:02.119Z,15.90
